createdAt,value
2017-12-02T00:03:19.125Z,64.60
2017-12-02T00:05:45.767Z,64.60
2017-12-02T00:08:12.461Z,64.60
2017-12-02T00:29:12.583Z,64.40
2017-12-02T00:31:46.555Z,64.30
2017-12-02T00:52:46.465Z,64.30
2017-12-02T00:57:52.218Z,64.30
2017-12-02T01:00:18.915Z,64.20
2017-12-02T01:02:45.603Z,64.20
2017-12-02T01:05:16.920Z,64.10
2017-12-02T01:07:43.593Z,64.30
2017-12-02T01:10:10.230Z,64.10
2017-12-02T01:12:46.506Z,64.10
2017-12-02T01:15:13.127Z,64.10
2017-12-02T01:17:39.792Z,64.10
2017-12-02T01:20:06.823Z,64.10
2017-12-02T01:22:33.494Z,64.10
2017-12-02T01:25:00.175Z,64.10
2017-12-02T01:51:18.398Z,64.10
2017-12-02T01:56:34.536Z,64.10
2017-12-02T01:59:01.212Z,64.10
2017-12-02T02:01:28.289Z,64.10
2017-12-02T02:03:54.944Z,64.10
2017-12-02T02:06:21.633Z,64.10
2017-12-02T02:08:48.276Z,64.10
2017-12-02T02:11:14.966Z,64.10
2017-12-02T02:13:41.602Z,64.10
2017-12-02T02:16:08.270Z,64.10
2017-12-02T02:18:34.915Z,64.10
2017-12-02T02:21:01.598Z,64.10
2017-12-02T02:23:28.230Z,64.10
2017-12-02T02:25:54.896Z,64.10
2017-12-02T02:28:21.546Z,64.10
2017-12-02T02:30:48.213Z,64.10
2017-12-02T02:33:14.842Z,64.10
2017-12-02T02:38:20.731Z,64.10
2017-12-02T02:40:47.374Z,64.10
2017-12-02T02:59:06.905Z,64.10
2017-12-02T03:01:33.564Z,64.10
2017-12-02T03:04:00.238Z,64.10
2017-12-02T03:06:26.890Z,64.10
2017-12-02T03:08:53.543Z,64.10
2017-12-02T03:11:20.182Z,64.10
2017-12-02T03:13:46.882Z,64.10
2017-12-02T03:16:13.538Z,64.10
2017-12-02T03:18:40.268Z,64.10
2017-12-02T03:23:45.774Z,64.10
2017-12-02T03:26:12.426Z,64.10
2017-12-02T03:44:34.450Z,64.10
2017-12-02T03:47:01.091Z,64.10
2017-12-02T03:52:06.774Z,64.10
2017-12-02T03:54:35.009Z,64.10
2017-12-02T03:57:01.655Z,64.10
2017-12-02T03:59:29.010Z,64.10
2017-12-02T04:04:35.021Z,64.30
2017-12-02T04:07:01.674Z,64.10
2017-12-02T04:09:28.739Z,64.10
2017-12-02T04:11:59.058Z,64.30
2017-12-02T04:14:25.697Z,64.30
2017-12-02T04:16:52.356Z,64.10
2017-12-02T04:19:18.987Z,64.10
2017-12-02T04:21:45.694Z,64.10
2017-12-02T04:24:17.206Z,64.30
2017-12-02T04:26:43.871Z,64.30
2017-12-02T04:29:10.522Z,64.30
2017-12-02T04:31:37.606Z,64.30
2017-12-02T04:34:04.252Z,64.30
2017-12-02T04:36:30.926Z,64.30
2017-12-02T04:38:57.654Z,64.30
2017-12-02T04:41:24.293Z,64.30
2017-12-02T04:43:50.954Z,64.30
2017-12-02T04:46:17.605Z,64.30
2017-12-02T04:48:44.310Z,64.30
2017-12-02T04:51:10.966Z,64.30
2017-12-02T04:53:37.632Z,64.30
2017-12-02T04:56:04.279Z,64.10
2017-12-02T04:58:31.356Z,64.30
2017-12-02T05:00:57.990Z,64.30
2017-12-02T05:03:24.634Z,64.30
2017-12-02T05:05:51.270Z,64.30
2017-12-02T05:08:17.945Z,64.30
2017-12-02T05:10:44.622Z,64.30
2017-12-02T05:13:17.262Z,64.30
2017-12-02T05:15:43.917Z,64.30
2017-12-02T05:18:10.621Z,64.30
2017-12-02T05:20:38.288Z,64.30
2017-12-02T05:23:04.955Z,64.30
2017-12-02T05:25:31.613Z,64.30
2017-12-02T05:43:51.146Z,64.30
2017-12-02T05:46:17.798Z,64.30
2017-12-02T05:48:44.527Z,64.30
2017-12-02T05:51:11.175Z,64.30
2017-12-02T05:53:37.850Z,64.30
2017-12-02T05:56:04.525Z,64.30
2017-12-02T05:58:31.214Z,64.30
2017-12-02T06:32:50.197Z,64.30
2017-12-02T06:53:49.833Z,64.30
2017-12-02T07:01:34.761Z,64.30
2017-12-02T07:04:01.428Z,64.30
2017-12-02T07:06:28.120Z,64.30
2017-12-02T07:08:54.764Z,64.40
2017-12-02T07:11:21.413Z,64.30
2017-12-02T07:13:48.090Z,64.30
2017-12-02T07:16:15.137Z,64.10
2017-12-02T07:18:41.831Z,64.10
2017-12-02T07:21:08.889Z,64.10
2017-12-02T07:23:35.558Z,64.10
2017-12-02T07:26:02.206Z,63.90
2017-12-02T07:28:29.274Z,63.90
2017-12-02T07:30:59.090Z,64.10
2017-12-02T07:36:04.938Z,64.10
2017-12-02T07:38:31.609Z,63.80
2017-12-02T07:40:58.253Z,63.80
2017-12-02T07:43:24.919Z,63.80
2017-12-02T08:04:25.492Z,63.80
2017-12-02T08:17:29.353Z,63.80
2017-12-02T08:19:56.428Z,63.60
2017-12-02T08:22:23.470Z,63.80
2017-12-02T08:24:50.124Z,63.70
2017-12-02T08:27:16.763Z,63.70
2017-12-02T08:45:46.742Z,63.90
2017-12-02T08:48:13.407Z,63.70
2017-12-02T08:50:40.489Z,63.70
2017-12-02T08:53:07.162Z,63.70
2017-12-02T08:55:33.832Z,63.70
2017-12-02T08:58:00.511Z,63.70
2017-12-02T09:00:27.659Z,63.80
2017-12-02T09:02:54.547Z,63.60
2017-12-02T09:05:21.228Z,63.30
2017-12-02T09:10:26.375Z,63.30
2017-12-02T09:12:53.086Z,62.90
2017-12-02T09:15:20.138Z,62.70
2017-12-02T09:31:03.138Z,62.10
2017-12-02T09:36:08.767Z,61.90
2017-12-02T09:38:35.425Z,62.00
2017-12-02T09:41:02.118Z,62.10
2017-12-02T09:43:28.765Z,62.00
2017-12-02T09:45:55.419Z,61.80
2017-12-02T10:01:37.203Z,61.60
2017-12-02T10:04:03.874Z,61.20
2017-12-02T10:06:30.632Z,61.50
2017-12-02T10:08:57.751Z,61.30
2017-12-02T10:11:24.815Z,62.20
2017-12-02T10:13:51.513Z,62.20
2017-12-02T10:16:18.743Z,62.00
2017-12-02T10:31:57.873Z,62.20
2017-12-02T10:34:24.724Z,62.50
2017-12-02T10:36:51.421Z,62.20
2017-12-02T10:39:18.108Z,62.10
2017-12-02T10:41:44.779Z,62.10
2017-12-02T10:44:11.469Z,62.40
2017-12-02T10:46:38.200Z,62.70
2017-12-02T11:02:18.110Z,63.00
2017-12-02T11:07:23.424Z,63.40
2017-12-02T11:09:50.084Z,63.10
2017-12-02T11:12:16.764Z,63.30
2017-12-02T11:14:43.469Z,63.40
2017-12-02T11:48:56.335Z,63.00
2017-12-02T11:51:23.025Z,63.40
2017-12-02T11:53:49.711Z,63.20
2017-12-02T11:56:16.356Z,63.20
2017-12-02T11:58:43.013Z,63.10
2017-12-02T12:01:09.688Z,63.10
2017-12-02T12:03:36.366Z,63.10
2017-12-02T12:06:03.013Z,62.70
2017-12-02T12:08:29.672Z,62.80
2017-12-02T12:10:56.295Z,63.20
2017-12-02T12:13:22.970Z,63.30
2017-12-02T12:15:49.644Z,63.10
2017-12-02T12:18:16.322Z,63.00
2017-12-02T12:20:42.969Z,62.80
2017-12-02T12:23:09.611Z,62.60
2017-12-02T12:25:46.822Z,62.20
2017-12-02T12:28:13.487Z,62.10
2017-12-02T12:30:40.163Z,61.90
2017-12-02T12:33:06.863Z,62.00
2017-12-02T12:35:33.608Z,62.10
2017-12-02T12:38:00.280Z,62.10
2017-12-02T12:40:26.943Z,62.00
2017-12-02T12:42:53.647Z,62.30
2017-12-02T12:45:23.303Z,61.70
2017-12-02T12:47:49.962Z,61.00
2017-12-02T12:50:16.660Z,60.60
2017-12-02T12:52:43.364Z,61.10
2017-12-02T12:55:10.026Z,61.20
2017-12-02T12:57:36.697Z,61.50
2017-12-02T13:00:03.375Z,61.30
2017-12-02T13:02:30.057Z,60.90
2017-12-02T13:04:56.768Z,60.80
2017-12-02T13:07:23.446Z,61.20
2017-12-02T13:09:50.122Z,61.50
2017-12-02T13:12:16.778Z,61.00
2017-12-02T13:14:43.443Z,60.70
2017-12-02T13:17:10.093Z,60.70
2017-12-02T13:19:36.787Z,60.90
2017-12-02T13:22:03.481Z,60.90
2017-12-02T13:24:30.170Z,61.50
2017-12-02T13:26:56.817Z,61.60
2017-12-02T13:29:29.294Z,60.70
2017-12-02T13:31:55.946Z,61.60
2017-12-02T13:34:22.662Z,61.10
2017-12-02T13:36:49.366Z,60.50
2017-12-02T13:39:16.028Z,60.20
2017-12-02T13:41:42.670Z,60.40
2017-12-02T13:44:09.416Z,60.50
2017-12-02T13:46:36.036Z,60.50
2017-12-02T14:07:36.668Z,61.80
2017-12-02T14:28:35.660Z,60.60
2017-12-02T14:54:51.539Z,60.60
2017-12-02T15:23:45.022Z,61.20
2017-12-02T15:34:18.041Z,61.40
2017-12-02T15:50:00.931Z,60.90
2017-12-02T15:52:27.574Z,60.50
2017-12-02T15:54:54.259Z,60.70
2017-12-02T15:57:20.907Z,60.90
2017-12-02T15:59:47.583Z,61.20
2017-12-02T16:02:14.366Z,60.90
2017-12-02T16:04:41.051Z,61.00
2017-12-02T16:25:39.979Z,60.20
2017-12-02T16:36:03.200Z,61.10
2017-12-02T16:38:29.970Z,61.10
2017-12-02T16:40:56.615Z,61.10
2017-12-02T16:43:23.264Z,61.10
2017-12-02T16:45:50.058Z,60.90
2017-12-02T16:50:55.094Z,60.80
2017-12-02T16:53:21.821Z,61.10
2017-12-02T16:55:48.525Z,61.30
2017-12-02T16:58:15.220Z,61.10
2017-12-02T17:00:41.902Z,61.00
2017-12-02T17:03:08.591Z,61.10
2017-12-02T17:05:35.295Z,61.40
2017-12-02T17:08:01.990Z,61.40
2017-12-02T17:10:28.680Z,61.60
2017-12-02T17:12:55.382Z,61.70
2017-12-02T17:15:22.095Z,61.80
2017-12-02T17:17:48.739Z,61.80
2017-12-02T17:20:15.423Z,61.80
2017-12-02T17:22:42.507Z,61.80
2017-12-02T17:25:09.193Z,61.80
2017-12-02T17:30:14.228Z,61.60
2017-12-02T17:32:40.871Z,61.60
2017-12-02T17:35:07.559Z,61.20
2017-12-02T17:53:28.306Z,60.80
2017-12-02T17:55:55.017Z,60.70
2017-12-02T17:58:21.683Z,60.70
2017-12-02T18:00:48.360Z,60.80
2017-12-02T18:03:15.080Z,60.70
2017-12-02T18:05:41.884Z,60.70
2017-12-02T18:26:38.463Z,59.50
2017-12-02T18:37:01.761Z,59.40
2017-12-02T18:39:28.439Z,59.50
2017-12-02T18:41:55.111Z,59.70
2017-12-02T18:44:21.784Z,59.30
2017-12-02T18:46:48.513Z,59.30
2017-12-02T18:49:15.202Z,59.20
2017-12-02T18:51:53.016Z,59.20
2017-12-02T18:54:19.697Z,58.90
2017-12-02T18:56:46.385Z,59.20
2017-12-02T18:59:13.445Z,58.90
2017-12-02T19:01:41.442Z,58.90
2017-12-02T19:04:08.098Z,59.30
2017-12-02T19:06:34.790Z,59.30
2017-12-02T19:09:01.860Z,58.80
2017-12-02T19:11:28.553Z,58.80
2017-12-02T19:13:55.225Z,58.60
2017-12-02T19:16:21.982Z,58.60
2017-12-02T19:18:48.646Z,58.50
2017-12-02T19:21:15.372Z,58.40
2017-12-02T19:23:42.041Z,58.30
2017-12-02T19:26:08.677Z,58.50
2017-12-02T19:28:35.334Z,58.20
2017-12-02T19:31:02.009Z,58.30
2017-12-02T19:33:28.677Z,58.20
2017-12-02T19:36:05.011Z,58.40
2017-12-02T19:38:31.674Z,58.20
2017-12-02T19:40:58.330Z,58.20
2017-12-02T19:43:25.020Z,58.40
2017-12-02T19:45:51.758Z,58.20
2017-12-02T19:50:57.102Z,58.60
2017-12-02T19:53:23.867Z,58.50
2017-12-02T19:55:50.530Z,58.70
2017-12-02T19:58:17.206Z,58.40
2017-12-02T20:00:43.872Z,58.40
2017-12-02T20:03:10.553Z,58.40
2017-12-02T20:05:37.238Z,58.20
2017-12-02T20:08:03.944Z,58.40
2017-12-02T20:10:30.615Z,58.20
2017-12-02T20:12:57.307Z,58.40
2017-12-02T20:15:24.017Z,58.10
2017-12-02T20:17:50.708Z,58.10
2017-12-02T20:20:17.386Z,58.30
2017-12-02T20:22:44.029Z,58.20
2017-12-02T20:25:11.485Z,58.20
2017-12-02T20:27:38.133Z,58.10
2017-12-02T20:30:04.804Z,58.10
2017-12-02T20:32:31.529Z,58.00
2017-12-02T20:34:58.174Z,58.20
2017-12-02T20:37:24.815Z,58.30
2017-12-02T20:53:07.711Z,58.30
2017-12-02T20:55:34.456Z,57.90
2017-12-02T20:58:01.127Z,58.20
2017-12-02T21:00:27.786Z,58.00
2017-12-02T21:02:54.541Z,58.20
2017-12-02T21:05:21.210Z,57.90
2017-12-02T21:07:47.946Z,57.90
2017-12-02T21:10:14.662Z,58.00
2017-12-02T21:12:41.377Z,57.90
2017-12-02T21:15:08.461Z,57.90
2017-12-02T21:17:35.205Z,57.90
2017-12-02T21:20:01.854Z,58.40
2017-12-02T21:22:28.519Z,58.00
2017-12-02T21:24:55.199Z,58.00
2017-12-02T21:30:01.021Z,58.10
2017-12-02T21:32:27.701Z,58.10
2017-12-02T21:34:54.344Z,58.00
2017-12-02T21:37:20.977Z,58.00
2017-12-02T21:39:47.636Z,58.10
2017-12-02T21:42:14.350Z,57.80
2017-12-02T21:44:41.065Z,58.20
2017-12-02T21:47:07.723Z,57.80
2017-12-02T21:49:41.268Z,57.70
2017-12-02T21:52:07.907Z,58.00
2017-12-02T22:13:07.765Z,58.00
2017-12-02T22:34:08.749Z,58.20
2017-12-02T22:39:14.457Z,58.10
2017-12-02T22:41:41.188Z,58.00
2017-12-02T22:44:07.824Z,58.20
2017-12-02T22:46:34.492Z,57.70
2017-12-02T23:12:48.629Z,58.00
2017-12-02T23:33:47.126Z,58.00
2017-12-02T23:41:31.997Z,58.00
2017-12-02T23:43:58.663Z,58.20
2017-12-02T23:46:25.376Z,58.20
2017-12-02T23:48:52.038Z,58.20
2017-12-02T23:51:23.547Z,57.90
2017-12-02T23:53:50.201Z,57.90
